createdAt,value
2023-04-17T00:00:31.449Z,1020.5
2023-04-17T00:01:36.228Z,1020.5
2023-04-17T00:02:31.632Z,1020.5
2023-04-17T00:03:31.812Z,1020.5
2023-04-17T00:04:31.559Z,1020.5
2023-04-17T00:05:31.436Z,1020.5
2023-04-17T00:06:31.411Z,1020.5
2023-04-17T00:07:31.416Z,1020.5
2023-04-17T00:08:32.805Z,1020.5
2023-04-17T00:09:31.382Z,1020.5
2023-04-17T00:10:31.452Z,1020.5
2023-04-17T00:11:35.559Z,1020.4
2023-04-17T00:12:31.428Z,1020.4
2023-04-17T00:13:32.849Z,1020.5
2023-04-17T00:14:31.539Z,1020.4
2023-04-17T00:15:31.443Z,1020.4
2023-04-17T00:16:35.969Z,1020.4
2023-04-17T00:17:32.629Z,1020.4
2023-04-17T00:18:31.512Z,1020.3
2023-04-17T00:19:31.421Z,1020.3
2023-04-17T00:20:34.051Z,1020.4
2023-04-17T00:21:31.442Z,1020.3
2023-04-17T00:22:32.617Z,1020.3
2023-04-17T00:23:35.752Z,1020.4
2023-04-17T00:24:32.529Z,1020.4
2023-04-17T00:25:35.727Z,1020.4
2023-04-17T00:26:31.379Z,1020.3
2023-04-17T00:27:31.400Z,1020.3
2023-04-17T00:28:35.794Z,1020.3
2023-04-17T00:29:37.349Z,1020.4
2023-04-17T00:30:33.795Z,1020.4
2023-04-17T00:31:31.450Z,1020.3
2023-04-17T00:32:31.399Z,1020.4
2023-04-17T00:33:39.968Z,1020.3
2023-04-17T00:34:31.377Z,1020.3
2023-04-17T00:35:32.702Z,1020.3
2023-04-17T00:36:32.875Z,1020.3
2023-04-17T00:37:31.362Z,1020.4
2023-04-17T00:38:31.411Z,1020.4
2023-04-17T00:39:32.678Z,1020.4
2023-04-17T00:40:31.362Z,1020.4
2023-04-17T00:41:35.742Z,1020.5
2023-04-17T00:42:31.398Z,1020.4
2023-04-17T00:43:31.400Z,1020.4
2023-04-17T00:44:32.781Z,1020.4
2023-04-17T00:45:31.459Z,1020.4
2023-04-17T00:46:31.353Z,1020.4
2023-04-17T00:48:32.634Z,1020.4
2023-04-17T00:50:31.350Z,1020.4
2023-04-17T00:51:31.382Z,1020.4
2023-04-17T00:52:32.510Z,1020.4
2023-04-17T00:53:31.392Z,1020.4
2023-04-17T00:54:31.379Z,1020.4
2023-04-17T00:55:37.407Z,1020.4
2023-04-17T00:57:33.660Z,1020.4
2023-04-17T00:58:34.783Z,1020.3
2023-04-17T00:59:33.764Z,1020.4
2023-04-17T01:00:36.931Z,1020.4
2023-04-17T01:01:33.868Z,1020.5
2023-04-17T01:02:35.190Z,1020.4
2023-04-17T01:03:34.135Z,1020.5
2023-04-17T01:04:33.690Z,1020.4
2023-04-17T01:05:36.231Z,1020.5
2023-04-17T01:06:33.949Z,1020.4
2023-04-17T01:07:36.342Z,1020.5
2023-04-17T01:08:38.193Z,1020.4
2023-04-17T01:09:39.374Z,1020.4
2023-04-17T01:15:42.259Z,1020.5
2023-04-17T01:16:46.634Z,1020.4
2023-04-17T01:21:01.071Z,1020.4
2023-04-17T01:21:50.459Z,1020.4
2023-04-17T01:23:11.571Z,1020.3
2023-04-17T01:23:56.259Z,1020.5
2023-04-17T01:24:54.228Z,1020.3
2023-04-17T02:42:38.523Z,1020.4
2023-04-17T02:44:04.484Z,1020.4
2023-04-17T03:30:04.615Z,1020.3
2023-04-17T03:59:11.450Z,1020.5
2023-04-17T04:01:09.829Z,1020.9
2023-04-17T04:02:12.638Z,1020.9
2023-04-17T04:03:09.961Z,1020.8
2023-04-17T04:04:15.835Z,1020.9
2023-04-17T04:07:24.977Z,1020.9
2023-04-17T04:08:09.824Z,1021.1
2023-04-17T06:24:38.400Z,1021.0
2023-04-17T06:27:06.624Z,1021.4
2023-04-17T06:31:48.395Z,1021.3
2023-04-17T06:32:47.821Z,1021.3
2023-04-17T06:34:09.544Z,1021.3
2023-04-17T06:35:13.763Z,1021.4
2023-04-17T06:38:48.953Z,1021.4
2023-04-17T06:39:52.175Z,1021.5
2023-04-17T06:40:49.433Z,1021.4
2023-04-17T06:41:46.370Z,1021.5
2023-04-17T06:46:51.390Z,1021.4
2023-04-17T06:48:01.176Z,1021.5
2023-04-17T06:54:55.352Z,1021.6
2023-04-17T07:00:06.280Z,1021.6
2023-04-17T07:02:00.659Z,1021.7
2023-04-17T07:02:56.206Z,1021.8
2023-04-17T07:03:55.160Z,1021.7
2023-04-17T07:04:53.830Z,1021.7
2023-04-17T07:05:55.190Z,1021.7
2023-04-17T07:06:56.474Z,1021.7
2023-04-17T07:10:53.757Z,1021.8
2023-04-17T07:11:53.779Z,1021.9
2023-04-17T07:12:53.660Z,1021.9
2023-04-17T07:13:53.772Z,1021.9
2023-04-17T07:14:53.710Z,1021.9
2023-04-17T07:15:53.979Z,1022.0
2023-04-17T07:16:53.774Z,1021.9
2023-04-17T07:17:53.946Z,1021.9
2023-04-17T07:18:53.722Z,1021.9
2023-04-17T07:19:53.698Z,1021.9
2023-04-17T07:20:53.674Z,1022.0
2023-04-17T07:21:53.635Z,1021.9
2023-04-17T07:22:53.668Z,1021.9
2023-04-17T07:23:53.687Z,1022.0
2023-04-17T07:24:53.778Z,1022.0
2023-04-17T07:25:53.653Z,1021.9
2023-04-17T07:26:53.687Z,1021.9
2023-04-17T07:28:16.776Z,1021.9
2023-04-17T07:28:53.766Z,1021.9
2023-04-17T07:29:53.714Z,1021.8
2023-04-17T07:30:53.672Z,1021.9
2023-04-17T07:46:56.672Z,1020.8
2023-04-17T07:47:53.706Z,1021.9
2023-04-17T07:48:54.150Z,1022.0
2023-04-17T07:49:53.624Z,1022.0
2023-04-17T07:50:53.584Z,1022.0
2023-04-17T07:51:53.580Z,1022.0
2023-04-17T07:52:53.581Z,1022.0
2023-04-17T07:53:53.626Z,1022.0
2023-04-17T07:54:53.609Z,1022.0
2023-04-17T07:55:53.618Z,1021.9
2023-04-17T07:56:53.599Z,1022.0
2023-04-17T07:57:53.587Z,1022.0
2023-04-17T07:58:53.613Z,1022.0
2023-04-17T07:59:53.609Z,1022.1
2023-04-17T08:00:53.587Z,1022.0
2023-04-17T08:01:53.663Z,1022.1
2023-04-17T08:02:53.719Z,1022.1
2023-04-17T08:03:54.035Z,1022.0
2023-04-17T08:04:53.728Z,1022.2
2023-04-17T08:05:53.649Z,1022.1
2023-04-17T08:06:54.343Z,1022.1
2023-04-17T08:07:53.760Z,1022.2
2023-04-17T08:08:53.584Z,1022.0
2023-04-17T08:09:53.604Z,1022.1
2023-04-17T08:10:53.597Z,1022.0
2023-04-17T08:11:57.670Z,1022.1
2023-04-17T08:12:53.629Z,1022.0
2023-04-17T08:13:53.734Z,1022.1
2023-04-17T08:14:53.720Z,1022.1
2023-04-17T08:15:53.535Z,1022.1
2023-04-17T08:16:53.641Z,1022.1
2023-04-17T08:17:53.705Z,1022.0
2023-04-17T08:18:53.782Z,1022.1
2023-04-17T08:19:53.708Z,1022.1
2023-04-17T08:20:53.581Z,1022.1
2023-04-17T08:21:53.612Z,1022.1
2023-04-17T08:22:53.663Z,1022.1
2023-04-17T08:23:53.730Z,1022.1
2023-04-17T08:24:53.534Z,1022.1
2023-04-17T08:25:53.673Z,1022.2
2023-04-17T08:26:53.552Z,1022.1
2023-04-17T08:27:53.559Z,1022.1
2023-04-17T08:28:53.617Z,1022.1
2023-04-17T08:29:53.588Z,1022.2
2023-04-17T08:30:53.635Z,1022.1
2023-04-17T08:32:06.820Z,1022.2
2023-04-17T08:32:53.563Z,1022.2
2023-04-17T08:34:06.263Z,1022.2
2023-04-17T08:34:53.516Z,1022.2
2023-04-17T08:35:53.644Z,1022.1
2023-04-17T08:36:53.537Z,1022.1
2023-04-17T08:37:53.583Z,1022.1
2023-04-17T08:38:53.529Z,1022.2
2023-04-17T08:39:53.604Z,1022.2
2023-04-17T08:40:53.669Z,1022.2
2023-04-17T08:41:53.502Z,1022.1
2023-04-17T08:42:53.605Z,1022.2
2023-04-17T08:43:53.554Z,1022.2
2023-04-17T08:44:53.561Z,1022.1
2023-04-17T08:45:53.905Z,1022.1
2023-04-17T08:46:53.512Z,1022.1
2023-04-17T08:47:53.743Z,1022.1
2023-04-17T08:48:53.528Z,1022.1
2023-04-17T08:49:53.635Z,1022.0
2023-04-17T08:50:53.577Z,1022.1
2023-04-17T08:51:53.602Z,1022.1
2023-04-17T08:52:53.542Z,1022.0
2023-04-17T08:53:53.603Z,1022.1
2023-04-17T08:54:53.513Z,1022.1
2023-04-17T08:55:53.581Z,1022.1
2023-04-17T08:56:53.523Z,1022.0
2023-04-17T08:57:53.665Z,1022.1
2023-04-17T08:58:53.498Z,1022.1
2023-04-17T08:59:53.518Z,1022.1
2023-04-17T09:00:53.625Z,1022.1
2023-04-17T09:01:53.668Z,1022.0
2023-04-17T09:02:53.924Z,1022.1
2023-04-17T09:03:53.596Z,1022.0
2023-04-17T09:04:53.627Z,1022.1
2023-04-17T09:05:53.519Z,1022.0
2023-04-17T09:06:53.528Z,1022.0
2023-04-17T09:07:53.727Z,1022.1
2023-04-17T09:08:53.526Z,1022.1
2023-04-17T09:09:53.512Z,1022.1
2023-04-17T09:10:53.517Z,1022.1
2023-04-17T09:11:53.518Z,1022.1
2023-04-17T09:12:53.573Z,1022.1
2023-04-17T09:13:53.649Z,1022.0
2023-04-17T09:14:53.539Z,1022.1
2023-04-17T09:15:53.577Z,1022.1
2023-04-17T09:16:53.481Z,1022.1
2023-04-17T09:17:53.626Z,1022.0
2023-04-17T09:18:53.483Z,1022.0
2023-04-17T09:19:53.460Z,1022.1
2023-04-17T09:20:53.516Z,1022.0
2023-04-17T09:21:53.485Z,1022.0
2023-04-17T09:22:53.508Z,1022.0
2023-04-17T09:23:53.472Z,1022.2
2023-04-17T09:24:53.445Z,1022.1
2023-04-17T09:25:53.522Z,1022.1
2023-04-17T09:26:53.482Z,1022.1
2023-04-17T09:27:53.533Z,1022.1
2023-04-17T09:28:53.461Z,1022.1
2023-04-17T09:29:53.463Z,1022.1
2023-04-17T09:30:53.530Z,1022.1
2023-04-17T09:31:53.453Z,1022.0
2023-04-17T09:32:53.588Z,1022.0
2023-04-17T09:33:53.478Z,1022.0
2023-04-17T09:34:53.437Z,1022.0
2023-04-17T09:35:53.706Z,1022.0
2023-04-17T09:36:53.470Z,1022.0
2023-04-17T09:37:53.498Z,1022.0
2023-04-17T09:38:53.661Z,1022.0
2023-04-17T09:39:53.516Z,1022.0
2023-04-17T09:40:53.465Z,1022.0
2023-04-17T09:41:53.478Z,1022.0
2023-04-17T09:42:53.460Z,1022.0
2023-04-17T09:43:53.477Z,1022.0
2023-04-17T09:44:53.446Z,1022.0
2023-04-17T09:45:53.532Z,1022.0
2023-04-17T09:46:53.652Z,1022.0
2023-04-17T09:47:53.544Z,1022.0
2023-04-17T09:48:53.474Z,1022.0
2023-04-17T09:49:53.537Z,1022.0
2023-04-17T09:50:53.635Z,1022.0
2023-04-17T09:51:53.445Z,1021.9
2023-04-17T09:52:53.423Z,1021.9
2023-04-17T09:53:53.500Z,1022.0
2023-04-17T09:54:53.453Z,1021.9
2023-04-17T09:55:53.425Z,1021.9
2023-04-17T09:56:53.496Z,1021.8
2023-04-17T09:57:53.580Z,1021.8
2023-04-17T09:58:53.456Z,1021.8
2023-04-17T09:59:53.405Z,1021.8
2023-04-17T10:00:53.531Z,1021.9
2023-04-17T10:01:53.476Z,1021.9
2023-04-17T10:02:53.666Z,1021.9
2023-04-17T10:03:53.625Z,1021.9
2023-04-17T10:04:53.433Z,1021.9
2023-04-17T10:05:53.417Z,1021.9
2023-04-17T10:06:53.410Z,1021.8
2023-04-17T10:07:53.552Z,1021.9
2023-04-17T10:08:53.406Z,1021.9
2023-04-17T10:09:53.396Z,1021.9
2023-04-17T10:10:53.419Z,1022.0
2023-04-17T10:11:53.382Z,1022.0
2023-04-17T10:12:53.515Z,1022.0
2023-04-17T10:13:53.423Z,1022.0
2023-04-17T10:14:53.384Z,1022.1
2023-04-17T10:15:53.502Z,1022.1
2023-04-17T10:16:53.404Z,1022.1
2023-04-17T10:17:53.462Z,1022.1
2023-04-17T10:18:53.593Z,1022.0
2023-04-17T10:19:53.395Z,1022.0
2023-04-17T10:20:54.016Z,1022.0
2023-04-17T10:21:54.847Z,1022.1
2023-04-17T10:22:53.450Z,1022.1
2023-04-17T10:23:53.486Z,1022.1
2023-04-17T10:24:53.375Z,1022.1
2023-04-17T10:25:53.395Z,1022.0
2023-04-17T10:26:53.357Z,1022.1
2023-04-17T10:27:53.364Z,1022.0
2023-04-17T10:28:53.437Z,1022.1
2023-04-17T10:29:53.519Z,1022.1
2023-04-17T10:30:53.543Z,1022.0
2023-04-17T10:31:53.521Z,1022.0
2023-04-17T10:32:53.420Z,1022.0
2023-04-17T10:33:53.623Z,1022.0
2023-04-17T10:34:54.060Z,1022.0
2023-04-17T10:35:53.377Z,1022.1
2023-04-17T10:36:53.385Z,1022.0
2023-04-17T10:37:53.586Z,1022.1
2023-04-17T10:38:53.392Z,1022.1
2023-04-17T10:39:53.368Z,1022.1
2023-04-17T10:40:53.479Z,1022.1
2023-04-17T10:41:53.349Z,1022.1
2023-04-17T10:42:53.411Z,1022.1
2023-04-17T10:43:53.310Z,1022.1
2023-04-17T10:44:53.398Z,1022.1
2023-04-17T10:45:53.450Z,1022.1
2023-04-17T10:46:53.386Z,1022.2
2023-04-17T10:47:53.856Z,1022.1
2023-04-17T10:48:53.748Z,1022.1
2023-04-17T10:49:53.366Z,1022.2
2023-04-17T10:50:53.609Z,1022.1
2023-04-17T10:51:53.570Z,1022.1
2023-04-17T10:52:53.346Z,1022.0
2023-04-17T10:53:53.334Z,1022.1
2023-04-17T10:54:53.388Z,1022.1
2023-04-17T10:55:53.385Z,1022.1
2023-04-17T10:56:53.525Z,1022.2
2023-04-17T10:57:54.032Z,1022.1
2023-04-17T10:58:53.300Z,1022.0
2023-04-17T10:59:53.396Z,1022.1
2023-04-17T11:00:53.383Z,1022.1
2023-04-17T11:01:53.579Z,1022.0
2023-04-17T11:02:53.527Z,1022.1
2023-04-17T11:03:53.352Z,1022.0
2023-04-17T11:04:53.304Z,1022.1
2023-04-17T11:05:53.383Z,1022.2
2023-04-17T11:06:53.351Z,1022.1
2023-04-17T11:07:53.350Z,1022.1
2023-04-17T11:08:53.627Z,1022.1
2023-04-17T11:09:53.325Z,1022.2
2023-04-17T11:10:53.328Z,1022.1
2023-04-17T11:11:53.603Z,1022.1
2023-04-17T11:12:53.386Z,1022.1
2023-04-17T11:13:53.382Z,1022.2
2023-04-17T11:14:53.335Z,1022.1
2023-04-17T11:15:53.353Z,1022.1
2023-04-17T11:16:53.438Z,1022.2
2023-04-17T11:17:53.417Z,1022.2
2023-04-17T11:18:53.340Z,1022.2
2023-04-17T11:19:53.358Z,1022.3
2023-04-17T11:20:53.342Z,1022.3
2023-04-17T11:21:53.382Z,1022.4
2023-04-17T11:22:53.283Z,1022.3
2023-04-17T11:23:53.330Z,1022.3
2023-04-17T11:24:53.537Z,1022.2
2023-04-17T11:25:53.309Z,1022.3
2023-04-17T11:26:53.316Z,1022.3
2023-04-17T11:27:53.284Z,1022.2
2023-04-17T11:28:53.305Z,1022.1
2023-04-17T11:29:53.259Z,1022.2
2023-04-17T11:30:53.370Z,1022.1
2023-04-17T11:31:53.376Z,1022.2
2023-04-17T11:32:53.373Z,1022.1
2023-04-17T11:33:53.234Z,1022.2
2023-04-17T11:34:53.272Z,1022.2
2023-04-17T11:35:53.429Z,1022.2
2023-04-17T11:36:53.271Z,1022.2
2023-04-17T11:37:53.331Z,1022.3
2023-04-17T11:38:55.408Z,1022.2
2023-04-17T11:39:53.239Z,1022.3
2023-04-17T11:40:53.395Z,1022.2
2023-04-17T11:41:53.273Z,1022.3
2023-04-17T11:42:53.348Z,1022.3
2023-04-17T11:43:53.268Z,1022.3
2023-04-17T11:44:53.248Z,1022.3
2023-04-17T11:45:53.367Z,1022.2
2023-04-17T11:46:57.515Z,1022.2
2023-04-17T11:47:53.267Z,1022.2
2023-04-17T11:48:53.255Z,1022.2
2023-04-17T11:49:53.344Z,1022.2
2023-04-17T11:50:53.220Z,1022.1
2023-04-17T11:51:53.236Z,1022.2
2023-04-17T11:52:53.363Z,1022.2
2023-04-17T11:53:53.225Z,1022.1
2023-04-17T11:54:53.279Z,1022.2
2023-04-17T11:55:53.238Z,1022.1
2023-04-17T11:56:53.209Z,1022.1
2023-04-17T11:57:53.332Z,1022.1
2023-04-17T11:58:53.267Z,1022.2
2023-04-17T11:59:53.218Z,1022.1
2023-04-17T12:00:53.253Z,1022.2
2023-04-17T12:01:53.407Z,1022.1
2023-04-17T12:02:53.524Z,1022.1
2023-04-17T12:03:53.349Z,1022.2
2023-04-17T12:04:53.405Z,1022.2
2023-04-17T12:05:53.590Z,1022.1
2023-04-17T12:06:53.234Z,1022.2
2023-04-17T12:07:53.521Z,1022.2
2023-04-17T12:08:53.246Z,1022.2
2023-04-17T12:09:53.247Z,1022.2
2023-04-17T12:10:53.220Z,1022.2
2023-04-17T12:11:53.190Z,1022.2
2023-04-17T12:12:53.250Z,1022.1
2023-04-17T12:13:53.253Z,1022.2
2023-04-17T12:14:53.271Z,1022.1
2023-04-17T12:15:53.253Z,1022.2
2023-04-17T12:16:53.210Z,1022.2
2023-04-17T12:17:53.248Z,1022.2
2023-04-17T12:18:53.354Z,1022.1
2023-04-17T12:19:53.628Z,1022.2
2023-04-17T12:20:53.283Z,1022.1
2023-04-17T12:21:53.274Z,1022.1
2023-04-17T12:22:53.234Z,1022.2
2023-04-17T12:23:53.197Z,1022.1
2023-04-17T12:24:53.182Z,1022.2
2023-04-17T12:25:53.259Z,1022.2
2023-04-17T12:26:53.387Z,1022.1
2023-04-17T12:27:53.268Z,1022.1
2023-04-17T12:28:53.179Z,1022.2
2023-04-17T12:29:53.197Z,1022.1
2023-04-17T12:30:53.260Z,1022.1
2023-04-17T12:31:53.283Z,1022.1
2023-04-17T12:32:53.416Z,1022.2
2023-04-17T12:33:53.289Z,1022.1
2023-04-17T12:34:53.207Z,1022.1
2023-04-17T12:35:53.248Z,1022.1
2023-04-17T12:36:53.543Z,1022.1
2023-04-17T12:37:53.304Z,1022.1
2023-04-17T12:38:53.315Z,1022.1
2023-04-17T12:39:53.381Z,1022.1
2023-04-17T12:40:53.281Z,1022.2
2023-04-17T12:41:53.312Z,1022.2
2023-04-17T12:42:53.318Z,1022.2
2023-04-17T12:43:53.237Z,1022.1
2023-04-17T12:44:53.196Z,1022.2
2023-04-17T12:45:53.224Z,1022.2
2023-04-17T12:46:53.178Z,1022.1
2023-04-17T12:47:53.348Z,1022.1
2023-04-17T12:48:53.236Z,1022.1
2023-04-17T12:49:53.305Z,1022.1
2023-04-17T12:50:53.185Z,1022.1
2023-04-17T12:51:53.204Z,1022.1
2023-04-17T12:52:53.140Z,1022.0
2023-04-17T12:53:53.196Z,1022.2
2023-04-17T12:54:53.406Z,1022.1
2023-04-17T12:55:53.219Z,1022.1
2023-04-17T12:56:53.208Z,1022.1
2023-04-17T12:57:53.266Z,1022.1
2023-04-17T12:58:53.283Z,1022.1
2023-04-17T12:59:53.167Z,1022.1
2023-04-17T13:00:53.250Z,1022.0
2023-04-17T13:01:53.232Z,1022.1
2023-04-17T13:02:53.513Z,1022.1
2023-04-17T13:03:53.562Z,1022.0
2023-04-17T13:04:53.576Z,1022.0
2023-04-17T13:05:53.450Z,1022.1
2023-04-17T13:06:53.143Z,1022.1
2023-04-17T13:07:53.153Z,1022.0
2023-04-17T13:08:53.184Z,1022.1
2023-04-17T13:09:53.146Z,1022.1
2023-04-17T13:10:53.608Z,1022.1
2023-04-17T13:11:53.201Z,1022.1
2023-04-17T13:12:53.270Z,1022.1
2023-04-17T13:13:53.126Z,1022.1
2023-04-17T13:14:53.394Z,1022.0
2023-04-17T13:15:53.224Z,1022.0
2023-04-17T13:16:53.183Z,1022.0
2023-04-17T13:17:53.385Z,1022.1
2023-04-17T13:18:53.147Z,1022.2
2023-04-17T13:19:53.116Z,1022.2
2023-04-17T13:20:53.080Z,1022.1
2023-04-17T13:21:53.115Z,1022.1
2023-04-17T13:22:53.213Z,1022.0
2023-04-17T13:23:53.146Z,1022.1
2023-04-17T13:24:53.071Z,1022.1
2023-04-17T13:25:53.112Z,1022.2
2023-04-17T13:26:53.217Z,1022.1
2023-04-17T13:27:53.200Z,1022.0
2023-04-17T13:28:53.188Z,1022.1
2023-04-17T13:29:53.209Z,1022.1
2023-04-17T13:30:53.298Z,1022.1
2023-04-17T13:31:53.124Z,1022.1
2023-04-17T13:32:53.227Z,1022.1
2023-04-17T13:33:53.186Z,1022.1
2023-04-17T13:34:53.211Z,1022.1
2023-04-17T13:35:53.134Z,1022.1
2023-04-17T13:36:53.267Z,1022.1
2023-04-17T13:37:53.137Z,1022.1
2023-04-17T13:38:53.176Z,1022.1
2023-04-17T13:39:53.071Z,1022.2
2023-04-17T13:40:53.085Z,1022.2
2023-04-17T13:41:53.102Z,1022.2
2023-04-17T13:42:53.139Z,1022.1
2023-04-17T13:43:53.108Z,1022.2
2023-04-17T13:44:53.072Z,1022.2
2023-04-17T13:45:55.476Z,1022.2
2023-04-17T13:46:53.204Z,1022.2
2023-04-17T13:47:53.260Z,1022.1
2023-04-17T13:48:53.077Z,1022.1
2023-04-17T13:49:53.172Z,1022.1
2023-04-17T13:50:53.078Z,1022.2
2023-04-17T13:51:53.040Z,1022.1
2023-04-17T13:52:53.093Z,1022.1
2023-04-17T13:53:53.082Z,1022.1
2023-04-17T13:54:53.069Z,1022.1
2023-04-17T13:55:53.112Z,1022.2
2023-04-17T13:56:53.012Z,1022.2
2023-04-17T13:57:53.097Z,1022.0
2023-04-17T13:58:53.208Z,1022.1
2023-04-17T13:59:53.048Z,1022.1
2023-04-17T14:00:53.109Z,1022.1
2023-04-17T14:01:53.230Z,1022.2
2023-04-17T14:02:53.219Z,1022.2
2023-04-17T14:03:53.193Z,1022.1
2023-04-17T14:04:53.307Z,1022.1
2023-04-17T14:05:53.025Z,1022.2
2023-04-17T14:06:53.052Z,1022.2
2023-04-17T14:07:53.142Z,1022.2
2023-04-17T14:08:53.032Z,1022.2
2023-04-17T14:09:53.202Z,1022.1
2023-04-17T14:10:53.023Z,1022.1
2023-04-17T14:11:53.110Z,1022.2
2023-04-17T14:12:54.418Z,1022.2
2023-04-17T14:13:53.017Z,1022.2
2023-04-17T14:14:53.063Z,1022.2
2023-04-17T14:15:53.037Z,1022.2
2023-04-17T14:16:53.011Z,1022.2
2023-04-17T14:17:53.130Z,1022.2
2023-04-17T14:18:53.064Z,1022.2
2023-04-17T14:19:52.989Z,1022.2
2023-04-17T14:20:53.335Z,1022.2
2023-04-17T14:21:53.007Z,1022.2
2023-04-17T14:22:53.043Z,1022.1
2023-04-17T14:23:53.015Z,1022.2
2023-04-17T14:24:52.991Z,1022.2
2023-04-17T14:25:52.972Z,1022.1
2023-04-17T14:26:53.024Z,1022.1
2023-04-17T14:27:53.045Z,1022.1
2023-04-17T14:28:53.033Z,1022.1
2023-04-17T14:29:53.008Z,1022.2
2023-04-17T14:30:52.989Z,1022.1
2023-04-17T14:31:53.924Z,1022.1
2023-04-17T14:32:53.500Z,1022.2
2023-04-17T14:33:53.002Z,1022.0
2023-04-17T14:34:53.026Z,1022.1
2023-04-17T14:35:52.962Z,1022.0
2023-04-17T14:36:52.992Z,1022.1
2023-04-17T14:37:53.025Z,1022.1
2023-04-17T14:38:53.001Z,1022.1
2023-04-17T14:39:54.160Z,1022.1
2023-04-17T14:40:52.979Z,1022.1
2023-04-17T14:41:53.195Z,1022.1
2023-04-17T14:42:57.257Z,1022.1
2023-04-17T14:43:52.993Z,1022.1
2023-04-17T14:44:52.962Z,1022.1
2023-04-17T14:45:53.003Z,1022.2
2023-04-17T14:46:53.068Z,1022.2
2023-04-17T14:47:53.063Z,1022.2
2023-04-17T14:48:55.793Z,1022.1
2023-04-17T14:49:53.000Z,1022.2
2023-04-17T14:50:52.955Z,1022.1
2023-04-17T14:51:52.978Z,1022.1
2023-04-17T14:52:52.949Z,1022.1
2023-04-17T14:53:53.418Z,1022.1
2023-04-17T14:54:53.029Z,1022.1
2023-04-17T14:55:52.981Z,1022.1
2023-04-17T14:56:52.988Z,1022.0
2023-04-17T14:57:53.011Z,1022.2
2023-04-17T14:58:53.028Z,1022.2
2023-04-17T14:59:52.960Z,1022.2
2023-04-17T15:00:52.967Z,1022.1
2023-04-17T15:01:53.031Z,1022.1
2023-04-17T15:02:53.088Z,1022.2
2023-04-17T15:03:53.603Z,1022.2
2023-04-17T15:04:53.024Z,1022.2
2023-04-17T15:05:53.076Z,1022.2
2023-04-17T15:06:52.914Z,1022.2
2023-04-17T15:07:52.953Z,1022.2
2023-04-17T15:08:53.066Z,1022.2
2023-04-17T15:09:54.265Z,1022.1
2023-04-17T15:10:52.959Z,1022.2
2023-04-17T15:11:52.935Z,1022.2
2023-04-17T15:12:52.926Z,1022.1
2023-04-17T15:13:53.181Z,1022.2
2023-04-17T15:14:53.247Z,1022.1
2023-04-17T15:15:52.961Z,1022.2
2023-04-17T15:16:53.260Z,1022.3
2023-04-17T15:17:52.959Z,1022.2
2023-04-17T15:18:52.894Z,1022.2
2023-04-17T15:19:53.942Z,1022.1
2023-04-17T15:20:52.991Z,1022.2
2023-04-17T15:21:53.061Z,1022.1
2023-04-17T15:22:52.944Z,1022.1
2023-04-17T15:23:52.895Z,1022.1
2023-04-17T15:24:52.937Z,1022.2
2023-04-17T15:25:52.993Z,1022.1
2023-04-17T15:26:52.994Z,1022.2
2023-04-17T15:27:52.908Z,1022.2
2023-04-17T15:28:52.917Z,1022.2
2023-04-17T15:29:52.953Z,1022.1
2023-04-17T15:30:52.892Z,1022.2
2023-04-17T15:31:53.037Z,1022.3
2023-04-17T15:32:52.986Z,1022.1
2023-04-17T15:33:52.891Z,1022.3
2023-04-17T15:34:53.092Z,1022.2
2023-04-17T15:35:52.937Z,1022.2
2023-04-17T15:36:52.908Z,1022.2
2023-04-17T15:37:52.949Z,1022.2
2023-04-17T15:38:52.892Z,1022.2
2023-04-17T15:39:53.736Z,1022.2
2023-04-17T15:40:52.880Z,1022.2
2023-04-17T15:41:52.937Z,1022.2
2023-04-17T15:42:52.893Z,1022.2
2023-04-17T15:43:52.930Z,1022.1
2023-04-17T15:44:52.894Z,1022.2
2023-04-17T15:45:52.924Z,1022.1
2023-04-17T15:46:52.897Z,1022.1
2023-04-17T15:47:54.069Z,1022.1
2023-04-17T15:49:07.734Z,1022.1
2023-04-17T15:49:52.875Z,1022.2
2023-04-17T15:50:52.930Z,1022.2
2023-04-17T15:51:52.871Z,1022.2
2023-04-17T15:52:52.916Z,1022.1
2023-04-17T15:53:52.886Z,1022.2
2023-04-17T15:54:52.906Z,1022.1
2023-04-17T15:55:52.899Z,1022.2
2023-04-17T15:56:52.862Z,1022.2
2023-04-17T15:57:52.874Z,1022.1
2023-04-17T15:58:52.864Z,1022.1
2023-04-17T15:59:52.894Z,1022.1
2023-04-17T16:00:52.921Z,1022.1
2023-04-17T16:01:53.081Z,1022.1
2023-04-17T16:02:53.019Z,1022.0
2023-04-17T16:03:53.155Z,1022.1
2023-04-17T16:04:52.865Z,1022.0
2023-04-17T16:05:54.070Z,1022.0
2023-04-17T16:06:52.818Z,1022.0
2023-04-17T16:07:52.856Z,1022.1
2023-04-17T16:08:53.105Z,1022.1
2023-04-17T16:09:52.837Z,1022.0
2023-04-17T16:10:52.900Z,1022.1
2023-04-17T16:11:52.874Z,1022.2
2023-04-17T16:12:52.893Z,1022.1
2023-04-17T16:13:52.859Z,1022.0
2023-04-17T16:14:52.833Z,1022.0
2023-04-17T16:15:52.901Z,1022.1
2023-04-17T16:16:52.865Z,1022.1
2023-04-17T16:17:52.923Z,1022.1
2023-04-17T16:18:52.851Z,1022.1
2023-04-17T16:19:52.922Z,1022.1
2023-04-17T16:20:52.825Z,1022.1
2023-04-17T16:21:52.811Z,1022.1
2023-04-17T16:22:52.786Z,1022.1
2023-04-17T16:23:52.908Z,1022.1
2023-04-17T16:24:52.779Z,1022.1
2023-04-17T16:25:52.838Z,1022.1
2023-04-17T16:26:52.814Z,1022.2
2023-04-17T16:27:52.891Z,1022.1
2023-04-17T16:34:52.935Z,1022.2
2023-04-17T16:35:52.841Z,1022.2
2023-04-17T16:36:52.779Z,1022.1
2023-04-17T16:37:52.847Z,1022.2
2023-04-17T16:38:52.763Z,1022.2
2023-04-17T16:39:52.854Z,1022.3
2023-04-17T16:40:52.773Z,1022.3
2023-04-17T16:41:53.001Z,1022.2
2023-04-17T16:42:52.788Z,1022.2
2023-04-17T16:43:52.832Z,1022.3
2023-04-17T16:44:52.787Z,1022.2
2023-04-17T16:45:52.824Z,1022.3
2023-04-17T16:47:12.171Z,1022.3
2023-04-17T16:47:52.954Z,1022.3
2023-04-17T16:48:52.963Z,1022.2
2023-04-17T16:49:52.831Z,1022.3
2023-04-17T16:50:52.927Z,1022.3
2023-04-17T16:51:52.757Z,1022.4
2023-04-17T16:52:52.858Z,1022.3
2023-04-17T16:53:52.774Z,1022.3
2023-04-17T16:54:52.771Z,1022.3
2023-04-17T16:55:53.774Z,1022.3
2023-04-17T16:56:52.733Z,1022.3
2023-04-17T16:57:52.787Z,1022.3
2023-04-17T16:58:52.736Z,1022.3
2023-04-17T16:59:52.872Z,1022.3
2023-04-17T17:00:52.822Z,1022.4
2023-04-17T17:01:52.871Z,1022.4
2023-04-17T17:02:52.938Z,1022.3
2023-04-17T17:03:52.870Z,1022.4
2023-04-17T17:04:52.744Z,1022.4
2023-04-17T17:05:52.784Z,1022.4
2023-04-17T17:06:53.034Z,1022.5
2023-04-17T17:07:52.764Z,1022.4
2023-04-17T17:08:55.002Z,1022.5
2023-04-17T17:09:52.735Z,1022.4
2023-04-17T17:10:52.780Z,1022.5
2023-04-17T17:11:52.782Z,1022.4
2023-04-17T17:12:52.742Z,1022.5
2023-04-17T17:13:52.747Z,1022.5
2023-04-17T17:14:52.718Z,1022.5
2023-04-17T17:15:52.970Z,1022.5
2023-04-17T17:16:53.343Z,1022.5
2023-04-17T17:17:52.903Z,1022.5
2023-04-17T17:18:52.743Z,1022.5
2023-04-17T17:19:53.922Z,1022.5
2023-04-17T17:20:53.074Z,1022.4
2023-04-17T17:21:52.747Z,1022.5
2023-04-17T17:22:52.768Z,1022.5
2023-04-17T17:23:52.704Z,1022.5
2023-04-17T17:24:52.773Z,1022.6
2023-04-17T17:25:52.770Z,1022.5
2023-04-17T17:26:55.697Z,1022.5
2023-04-17T17:27:52.830Z,1022.6
2023-04-17T17:28:52.833Z,1022.6
2023-04-17T17:29:53.149Z,1022.6
2023-04-17T17:30:52.726Z,1022.5
2023-04-17T17:31:52.731Z,1022.6
2023-04-17T17:32:52.898Z,1022.6
2023-04-17T17:33:53.059Z,1022.6
2023-04-17T17:34:52.850Z,1022.6
2023-04-17T17:35:52.780Z,1022.6
2023-04-17T17:36:52.711Z,1022.7
2023-04-17T17:37:52.869Z,1022.7
2023-04-17T17:38:52.670Z,1022.6
2023-04-17T17:39:52.913Z,1022.6
2023-04-17T17:40:52.710Z,1022.7
2023-04-17T17:41:52.689Z,1022.7
2023-04-17T17:42:52.724Z,1022.7
2023-04-17T17:43:52.777Z,1022.7
2023-04-17T17:44:52.670Z,1022.7
2023-04-17T17:45:52.891Z,1022.7
2023-04-17T17:46:52.705Z,1022.7
2023-04-17T17:47:52.769Z,1022.8
2023-04-17T17:48:52.708Z,1022.8
2023-04-17T17:49:52.788Z,1022.8
2023-04-17T17:50:52.862Z,1022.7
2023-04-17T17:51:52.735Z,1022.9
2023-04-17T17:52:52.675Z,1022.8
2023-04-17T17:53:52.706Z,1022.7
2023-04-17T17:54:52.740Z,1022.7
2023-04-17T17:55:52.695Z,1022.7
2023-04-17T17:56:52.719Z,1022.7
2023-04-17T17:57:52.739Z,1022.7
2023-04-17T17:58:52.882Z,1022.8
2023-04-17T17:59:52.754Z,1022.7
2023-04-17T18:00:52.752Z,1022.7
2023-04-17T18:01:52.955Z,1022.8
2023-04-17T18:02:52.760Z,1022.8
2023-04-17T18:03:53.191Z,1022.7
2023-04-17T18:04:52.910Z,1022.7
2023-04-17T18:05:52.731Z,1022.8
2023-04-17T18:06:52.635Z,1022.8
2023-04-17T18:07:52.699Z,1022.7
2023-04-17T18:08:52.689Z,1022.9
2023-04-17T18:09:52.731Z,1022.8
2023-04-17T18:10:52.700Z,1022.8
2023-04-17T18:11:53.969Z,1022.8
2023-04-17T18:12:52.867Z,1022.8
2023-04-17T18:13:52.650Z,1022.9
2023-04-17T18:14:52.719Z,1022.9
2023-04-17T18:15:52.952Z,1022.8